Time;durP1;ratioP1;P1;durP2;ratioP2;P2;SDS_P1;SDS_P2;PMS_P1;PMS_P2;Temp;Humidity;BMP_temperature;BMP_pressure;BME280_temperature;BME280_humidity;BME280_pressure;Samples;Min_cycle;Max_cycle;Signal;HPM_P1;HPM_P2
2024/02/06 00:02:08;;;;;;;4.30;3.27;;;9.80;99.90;;;;;;4961961;28;20330;-74
2024/02/06 00:04:35;;;;;;;5.10;3.20;;;9.80;99.90;;;;;;4959114;28;20269;-74
2024/02/06 00:07:05;;;;;;;4.90;3.47;;;9.70;99.90;;;;;;4959281;28;20627;-73
2024/02/06 00:09:31;;;;;;;4.47;3.50;;;9.70;99.90;;;;;;4956954;28;20338;-73
2024/02/06 00:11:58;;;;;;;5.27;3.13;;;9.70;99.90;;;;;;4959344;28;20337;-73
2024/02/06 00:14:25;;;;;;;7.10;3.00;;;9.70;99.90;;;;;;4963229;28;20250;-73
2024/02/06 00:16:52;;;;;;;4.00;3.40;;;9.70;99.90;;;;;;4966597;28;20757;-75
2024/02/06 00:19:19;;;;;;;4.20;3.50;;;9.70;99.90;;;;;;4970230;28;20847;-74
2024/02/06 00:21:46;;;;;;;5.73;3.50;;;9.70;99.90;;;;;;4969758;28;20353;-74
2024/02/06 00:24:14;;;;;;;6.40;3.60;;;9.70;99.90;;;;;;4969999;28;20302;-74
2024/02/06 00:26:41;;;;;;;4.13;3.37;;;9.70;99.90;;;;;;4969132;28;20546;-73
2024/02/06 00:29:08;;;;;;;5.80;3.40;;;9.70;99.90;;;;;;4969899;28;20294;-74
2024/02/06 00:31:35;;;;;;;5.00;3.40;;;9.70;99.90;;;;;;4969557;28;20824;-74
2024/02/06 00:34:02;;;;;;;6.73;3.20;;;9.70;99.90;;;;;;4951530;28;20283;-73
2024/02/06 00:36:29;;;;;;;5.87;3.30;;;9.70;99.90;;;;;;4950130;28;20677;-73
2024/02/06 00:38:56;;;;;;;4.47;3.10;;;9.70;99.90;;;;;;4950315;28;20238;-74
2024/02/06 00:41:24;;;;;;;4.43;2.80;;;9.70;99.90;;;;;;4950207;28;20271;-74
2024/02/06 00:43:51;;;;;;;6.17;3.30;;;9.70;99.90;;;;;;4959841;28;20294;-73
2024/02/06 00:46:18;;;;;;;5.67;3.00;;;9.70;99.90;;;;;;4967519;28;20238;-73
2024/02/06 00:48:45;;;;;;;3.67;2.93;;;9.70;99.90;;;;;;4969089;28;20214;-73
2024/02/06 00:51:12;;;;;;;7.10;2.90;;;9.70;99.90;;;;;;4969454;28;20222;-73
2024/02/06 00:53:38;;;;;;;3.73;3.13;;;9.70;99.90;;;;;;4968822;28;20202;-73
2024/02/06 00:56:06;;;;;;;6.33;2.50;;;9.70;99.90;;;;;;4969454;28;20215;-72
2024/02/06 00:58:34;;;;;;;2.83;2.50;;;9.70;99.90;;;;;;4969076;28;20217;-72
2024/02/06 01:01:01;;;;;;;2.80;2.60;;;9.80;99.90;;;;;;4968970;28;20329;-73
2024/02/06 01:03:28;;;;;;;2.60;2.40;;;9.70;99.90;;;;;;4968817;28;20589;-73
2024/02/06 01:05:55;;;;;;;5.97;3.00;;;9.80;99.90;;;;;;4969055;28;20638;-73
2024/02/06 01:08:22;;;;;;;3.37;2.50;;;9.80;99.90;;;;;;4969022;28;20655;-73
2024/02/06 01:10:48;;;;;;;3.57;2.27;;;9.70;99.90;;;;;;4967471;28;20297;-74
2024/02/06 01:13:15;;;;;;;3.30;2.60;;;9.80;99.90;;;;;;4968979;28;20233;-74
2024/02/06 01:15:43;;;;;;;2.47;2.27;;;9.70;99.90;;;;;;4968540;28;20302;-74
2024/02/06 01:18:10;;;;;;;2.80;2.30;;;9.70;99.90;;;;;;4962784;28;20210;-75
2024/02/06 01:20:37;;;;;;;2.83;2.40;;;9.70;99.90;;;;;;4949606;28;20263;-74
2024/02/06 01:23:04;;;;;;;3.53;2.30;;;9.70;99.90;;;;;;4953365;28;20316;-75
2024/02/06 01:25:31;;;;;;;5.83;2.77;;;9.70;99.90;;;;;;4968722;28;20298;-75
2024/02/06 01:27:58;;;;;;;3.50;2.60;;;9.70;99.90;;;;;;4968575;28;20329;-73
2024/02/06 01:30:25;;;;;;;3.23;2.20;;;9.70;99.90;;;;;;4955650;28;20290;-73
2024/02/06 01:32:53;;;;;;;5.00;2.33;;;9.70;99.90;;;;;;4949378;28;20253;-73
2024/02/06 01:35:21;;;;;;;4.87;2.60;;;9.70;99.90;;;;;;4949381;28;20257;-73
2024/02/06 01:37:48;;;;;;;2.50;2.30;;;9.60;99.90;;;;;;4949008;28;20693;-73
2024/02/06 01:40:16;;;;;;;4.10;2.57;;;9.60;99.90;;;;;;4958597;28;20262;-73
2024/02/06 01:42:43;;;;;;;4.07;2.33;;;9.50;99.90;;;;;;4968231;28;20211;-73
2024/02/06 01:45:10;;;;;;;4.43;2.63;;;9.50;99.90;;;;;;4968264;28;20703;-74
2024/02/06 01:47:37;;;;;;;3.77;2.40;;;9.50;99.90;;;;;;4968608;28;20209;-73
2024/02/06 01:50:07;;;;;;;3.40;2.53;;;9.50;99.90;;;;;;4968021;28;20733;-73
2024/02/06 01:52:35;;;;;;;4.03;2.30;;;9.50;99.90;;;;;;4949074;28;20250;-72
2024/02/06 01:55:02;;;;;;;3.63;2.60;;;9.50;99.90;;;;;;4968072;28;20302;-72
2024/02/06 01:57:30;;;;;;;2.20;2.10;;;9.50;99.90;;;;;;4964869;28;20290;-72
2024/02/06 01:59:58;;;;;;;2.80;2.60;;;9.50;99.90;;;;;;4967060;28;20210;-72
2024/02/06 02:02:27;;;;;;;3.40;2.40;;;9.50;99.90;;;;;;4968226;28;20213;-72
2024/02/06 02:04:53;;;;;;;3.07;2.77;;;9.50;99.90;;;;;;4956407;28;20617;-72
2024/02/06 02:07:22;;;;;;;4.23;3.30;;;9.40;99.90;;;;;;4958170;28;20294;-72
2024/02/06 02:09:49;;;;;;;4.20;2.83;;;9.40;99.90;;;;;;4967636;28;20297;-72
2024/02/06 02:12:15;;;;;;;4.47;2.83;;;9.30;99.90;;;;;;4968168;28;20301;-72
2024/02/06 02:14:42;;;;;;;3.53;2.87;;;9.30;99.90;;;;;;4967547;28;20746;-72
2024/02/06 02:17:09;;;;;;;4.80;2.90;;;9.30;99.90;;;;;;4967977;28;20745;-72
2024/02/06 02:19:36;;;;;;;5.67;3.30;;;9.30;99.90;;;;;;4967854;28;20321;-72
2024/02/06 02:22:05;;;;;;;3.87;3.00;;;9.20;99.90;;;;;;4967190;28;20246;-72
2024/02/06 02:24:32;;;;;;;3.30;3.10;;;9.20;99.90;;;;;;4952090;28;20958;-72
2024/02/06 02:27:00;;;;;;;4.83;3.40;;;9.20;99.90;;;;;;4949787;28;20203;-72
2024/02/06 02:29:28;;;;;;;5.20;3.00;;;9.20;99.90;;;;;;4951901;28;20302;-72
2024/02/06 02:31:55;;;;;;;3.73;3.23;;;9.20;99.90;;;;;;4958493;28;20677;-72
2024/02/06 02:34:22;;;;;;;3.93;3.03;;;9.10;99.90;;;;;;4971719;28;20234;-72
2024/02/06 02:36:49;;;;;;;5.17;2.97;;;9.10;99.90;;;;;;4957559;28;20294;-72
2024/02/06 02:39:18;;;;;;;4.07;3.43;;;9.10;99.90;;;;;;4952709;28;20298;-73
2024/02/06 02:41:44;;;;;;;3.23;2.90;;;9.20;99.90;;;;;;4963316;28;20317;-73
2024/02/06 02:44:11;;;;;;;3.50;3.20;;;9.10;99.90;;;;;;4971934;28;20215;-73
2024/02/06 02:46:38;;;;;;;4.83;3.23;;;9.10;99.90;;;;;;4971282;28;20297;-73
2024/02/06 02:49:05;;;;;;;4.10;3.40;;;9.10;99.90;;;;;;4972003;28;20213;-73
2024/02/06 02:51:32;;;;;;;3.97;3.13;;;9.10;99.90;;;;;;4971524;28;20302;-73
2024/02/06 02:53:59;;;;;;;4.17;3.30;;;9.10;99.90;;;;;;4960267;28;20306;-73
2024/02/06 02:56:27;;;;;;;3.73;3.43;;;9.10;99.90;;;;;;4953128;28;20218;-75
2024/02/06 02:58:54;;;;;;;3.47;3.10;;;9.10;99.90;;;;;;4965968;28;20231;-74
2024/02/06 03:01:21;;;;;;;3.27;2.97;;;9.10;99.90;;;;;;4952352;28;20231;-74
2024/02/06 03:03:48;;;;;;;4.47;3.33;;;9.00;99.90;;;;;;4954090;28;20217;-75
2024/02/06 03:06:19;;;;;;;3.93;3.40;;;9.00;99.90;;;;;;4951820;28;20298;-74
2024/02/06 03:08:46;;;;;;;5.03;3.57;;;9.00;99.90;;;;;;4951577;28;20755;-75
2024/02/06 03:11:13;;;;;;;4.37;4.00;;;9.00;99.90;;;;;;4952266;28;20500;-74
2024/02/06 03:13:42;;;;;;;4.37;3.83;;;9.00;99.90;;;;;;4966781;28;20322;-74
2024/02/06 03:16:09;;;;;;;3.83;3.27;;;8.90;99.90;;;;;;4990927;28;20214;-74
2024/02/06 03:18:36;;;;;;;4.83;3.87;;;9.00;99.90;;;;;;4990886;28;20628;-72
2024/02/06 03:21:03;;;;;;;4.53;3.30;;;8.90;99.90;;;;;;4985679;28;20760;-74
2024/02/06 03:23:30;;;;;;;3.63;3.10;;;8.90;99.90;;;;;;4970227;28;20322;-73
2024/02/06 03:25:57;;;;;;;7.33;4.00;;;9.00;99.90;;;;;;4970546;28;20298;-73
2024/02/06 03:28:24;;;;;;;4.10;3.70;;;9.00;99.90;;;;;;4970866;28;20253;-73
2024/02/06 03:30:52;;;;;;;3.70;3.40;;;9.00;99.90;;;;;;4969247;28;20298;-73
2024/02/06 03:33:19;;;;;;;4.87;3.37;;;8.90;99.90;;;;;;4968765;28;20241;-73
2024/02/06 03:35:46;;;;;;;5.00;3.40;;;9.00;99.90;;;;;;4968604;28;20330;-73
2024/02/06 03:38:13;;;;;;;3.37;2.90;;;9.00;99.90;;;;;;4965057;28;20218;-74
2024/02/06 03:40:40;;;;;;;3.10;2.90;;;9.00;99.90;;;;;;4962030;28;20254;-74
2024/02/06 03:43:06;;;;;;;3.10;2.90;;;9.00;99.90;;;;;;4962662;28;20207;-74
2024/02/06 03:45:34;;;;;;;2.90;2.70;;;9.00;99.90;;;;;;4958576;28;20293;-74
2024/02/06 03:48:02;;;;;;;3.30;2.80;;;9.00;99.90;;;;;;4960072;28;20488;-74
2024/02/06 03:50:29;;;;;;;3.40;2.93;;;9.00;99.90;;;;;;4954806;28;20207;-75
2024/02/06 03:52:57;;;;;;;3.03;2.67;;;9.00;99.90;;;;;;4958131;28;20214;-74
2024/02/06 03:55:24;;;;;;;2.93;2.57;;;9.00;99.90;;;;;;4962768;28;20214;-74
2024/02/06 03:57:51;;;;;;;4.00;2.70;;;9.00;99.90;;;;;;4968432;28;20239;-73
2024/02/06 04:00:19;;;;;;;2.77;2.57;;;9.00;99.90;;;;;;4969130;28;20273;-73
2024/02/06 04:02:46;;;;;;;3.70;2.60;;;9.00;99.90;;;;;;4969596;28;20250;-73
2024/02/06 04:05:14;;;;;;;2.73;2.47;;;9.00;99.90;;;;;;4969062;28;20494;-74
2024/02/06 04:07:41;;;;;;;3.93;2.70;;;9.00;99.90;;;;;;4968862;28;20293;-73
2024/02/06 04:10:09;;;;;;;2.43;2.23;;;9.10;99.90;;;;;;4969134;28;20325;-73
2024/02/06 04:12:36;;;;;;;3.93;2.63;;;9.10;99.90;;;;;;4969308;28;20313;-73
2024/02/06 04:15:04;;;;;;;3.10;2.30;;;9.00;99.90;;;;;;4968390;28;20700;-73
2024/02/06 04:17:31;;;;;;;2.30;2.03;;;9.00;99.90;;;;;;4969198;28;20297;-73
2024/02/06 04:19:58;;;;;;;2.67;2.10;;;9.10;99.90;;;;;;4969603;28;20636;-74
2024/02/06 04:22:26;;;;;;;3.57;2.27;;;9.10;99.90;;;;;;4969573;28;20238;-74
2024/02/06 04:24:53;;;;;;;2.23;2.10;;;9.10;99.90;;;;;;4951055;28;20227;-74
2024/02/06 04:27:20;;;;;;;2.60;2.40;;;9.10;99.90;;;;;;4950522;29;20298;-74
2024/02/06 04:29:47;;;;;;;2.50;2.30;;;9.10;99.90;;;;;;4950227;29;20314;-74
2024/02/06 04:32:14;;;;;;;2.47;2.10;;;9.10;99.90;;;;;;4950615;28;20211;-73
2024/02/06 04:34:41;;;;;;;2.10;1.80;;;9.20;99.90;;;;;;4966863;28;20307;-74
2024/02/06 04:37:07;;;;;;;2.30;2.17;;;9.20;99.90;;;;;;4969667;28;20310;-74
2024/02/06 04:39:36;;;;;;;3.10;2.20;;;9.20;99.90;;;;;;4969349;28;20230;-74
2024/02/06 04:42:03;;;;;;;2.93;2.27;;;9.20;99.90;;;;;;4969549;28;20238;-74
2024/02/06 04:44:29;;;;;;;2.77;1.90;;;9.20;99.90;;;;;;4969280;28;20262;-73
2024/02/06 04:46:57;;;;;;;2.27;2.07;;;9.20;99.90;;;;;;4969136;28;20254;-73
2024/02/06 04:49:24;;;;;;;2.63;1.93;;;9.20;99.90;;;;;;4969334;28;20211;-73
2024/02/06 04:51:51;;;;;;;2.33;2.13;;;9.20;99.90;;;;;;4968453;28;20254;-73
2024/02/06 04:54:18;;;;;;;2.73;2.13;;;9.20;99.90;;;;;;4969535;28;20297;-73
2024/02/06 04:56:46;;;;;;;2.60;2.23;;;9.20;99.90;;;;;;4969307;28;20211;-73
2024/02/06 04:59:13;;;;;;;2.10;2.00;;;9.20;99.90;;;;;;4969077;28;20325;-74
2024/02/06 05:01:40;;;;;;;2.33;2.13;;;9.20;99.90;;;;;;4969037;28;20243;-73
2024/02/06 05:04:08;;;;;;;2.40;2.00;;;9.20;99.90;;;;;;4968967;28;20207;-74
2024/02/06 05:06:35;;;;;;;3.70;2.87;;;9.20;99.90;;;;;;4968497;28;20258;-74
2024/02/06 05:09:02;;;;;;;5.30;2.77;;;9.10;99.90;;;;;;4969070;28;20206;-74
2024/02/06 05:11:28;;;;;;;2.77;2.57;;;9.20;99.90;;;;;;4968889;28;20739;-74
2024/02/06 05:13:57;;;;;;;2.93;2.63;;;9.20;99.90;;;;;;4969202;28;20293;-74
2024/02/06 05:16:24;;;;;;;2.80;2.60;;;9.10;99.90;;;;;;4968508;28;20207;-74
2024/02/06 05:18:51;;;;;;;2.73;2.53;;;9.10;99.90;;;;;;4968767;28;20234;-74
2024/02/06 05:21:18;;;;;;;3.13;2.57;;;9.10;99.90;;;;;;4968746;28;20289;-74
2024/02/06 05:23:45;;;;;;;3.83;2.77;;;9.20;99.90;;;;;;4968154;28;20329;-74
2024/02/06 05:26:12;;;;;;;3.53;2.43;;;9.20;99.90;;;;;;4968859;28;20297;-74
2024/02/06 05:28:39;;;;;;;2.87;2.57;;;9.20;99.90;;;;;;4968785;28;20206;-74
2024/02/06 05:31:07;;;;;;;2.90;2.70;;;9.20;99.90;;;;;;4968331;28;20211;-74
2024/02/06 05:33:34;;;;;;;2.50;2.30;;;9.20;99.90;;;;;;4968642;28;20207;-74
2024/02/06 05:36:01;;;;;;;2.63;2.27;;;9.20;99.90;;;;;;4968386;28;20215;-73
2024/02/06 05:38:28;;;;;;;4.30;2.60;;;9.30;99.90;;;;;;4968340;28;20306;-73
2024/02/06 05:40:55;;;;;;;2.50;2.30;;;9.30;99.90;;;;;;4968127;28;20573;-74
2024/02/06 05:43:23;;;;;;;2.97;2.63;;;9.30;99.90;;;;;;4968275;28;20836;-74
2024/02/06 05:45:49;;;;;;;2.23;2.13;;;9.30;99.90;;;;;;4968038;28;20246;-74
2024/02/06 05:48:18;;;;;;;3.70;2.80;;;9.30;99.90;;;;;;4968194;28;20765;-74
2024/02/06 05:50:45;;;;;;;2.40;2.20;;;9.40;99.90;;;;;;4968133;28;20265;-74
2024/02/06 05:53:11;;;;;;;3.00;2.80;;;9.30;99.90;;;;;;4963351;28;20656;-74
2024/02/06 05:55:38;;;;;;;2.73;2.20;;;9.40;99.90;;;;;;4948690;29;20683;-74
2024/02/06 05:58:05;;;;;;;2.60;2.40;;;9.40;99.90;;;;;;4948541;28;20242;-74
2024/02/06 06:00:33;;;;;;;3.00;2.70;;;9.40;99.90;;;;;;4967788;28;20626;-74
2024/02/06 06:03:00;;;;;;;3.33;2.50;;;9.40;99.90;;;;;;4968105;28;20226;-74
2024/02/06 06:05:28;;;;;;;2.73;2.53;;;9.50;99.90;;;;;;4968222;28;20297;-74
2024/02/06 06:07:55;;;;;;;2.70;2.50;;;9.50;99.90;;;;;;4967817;28;20230;-73
2024/02/06 06:10:22;;;;;;;2.57;2.13;;;9.50;99.90;;;;;;4967889;28;20934;-74
2024/02/06 06:12:49;;;;;;;4.67;2.20;;;9.50;99.90;;;;;;4968232;28;20223;-74
2024/02/06 06:15:16;;;;;;;3.13;2.23;;;9.50;99.90;;;;;;4968375;28;20210;-74
2024/02/06 06:17:43;;;;;;;3.57;2.30;;;9.60;99.90;;;;;;4968054;28;20250;-74
2024/02/06 06:20:10;;;;;;;2.70;2.50;;;9.50;99.90;;;;;;4967847;28;20279;-74
2024/02/06 06:22:38;;;;;;;2.70;2.50;;;9.50;99.90;;;;;;4967322;28;20246;-74
2024/02/06 06:25:06;;;;;;;2.53;2.33;;;9.60;99.90;;;;;;4948397;28;20306;-74
2024/02/06 06:27:33;;;;;;;2.10;2.00;;;9.50;99.90;;;;;;4965660;28;20218;-74
2024/02/06 06:29:59;;;;;;;2.70;2.43;;;9.50;99.90;;;;;;4968076;28;20646;-74
2024/02/06 06:32:26;;;;;;;3.03;2.57;;;9.50;99.90;;;;;;4961716;28;20576;-74
2024/02/06 06:34:53;;;;;;;2.83;2.13;;;9.60;99.90;;;;;;4967479;28;20384;-74
2024/02/06 06:37:20;;;;;;;3.50;2.40;;;9.50;99.90;;;;;;4967706;28;20610;-74
2024/02/06 06:39:49;;;;;;;2.77;2.23;;;9.60;99.90;;;;;;4967682;28;20286;-74
2024/02/06 06:42:16;;;;;;;3.43;2.47;;;9.60;99.90;;;;;;4967732;28;20249;-73
2024/02/06 06:44:43;;;;;;;2.60;2.10;;;9.50;99.90;;;;;;4967689;28;20242;-74
2024/02/06 06:47:11;;;;;;;2.40;1.93;;;9.60;99.90;;;;;;4967245;28;20756;-74
2024/02/06 06:49:38;;;;;;;3.10;2.20;;;9.60;99.90;;;;;;4967840;28;20246;-74
2024/02/06 06:52:07;;;;;;;3.40;2.40;;;9.60;99.90;;;;;;4967514;28;20214;-74
2024/02/06 06:54:34;;;;;;;2.37;2.17;;;9.60;99.90;;;;;;4951989;28;20211;-73
2024/02/06 06:57:03;;;;;;;2.73;2.20;;;9.60;99.90;;;;;;4948333;29;20233;-74
2024/02/06 06:59:30;;;;;;;2.47;2.30;;;9.60;99.90;;;;;;4948468;29;20691;-74
2024/02/06 07:01:58;;;;;;;3.10;2.27;;;9.60;99.90;;;;;;4948219;29;20327;-73
2024/02/06 07:04:25;;;;;;;2.33;2.10;;;9.60;99.90;;;;;;4948204;29;20218;-74
2024/02/06 07:06:52;;;;;;;2.10;2.00;;;9.60;99.90;;;;;;4947578;28;20274;-74
2024/02/06 07:09:19;;;;;;;2.37;2.20;;;9.60;99.90;;;;;;4947805;29;20302;-73
2024/02/06 07:11:46;;;;;;;6.83;2.50;;;9.70;99.90;;;;;;4948103;28;20323;-74
2024/02/06 07:14:14;;;;;;;2.00;1.90;;;9.70;99.90;;;;;;4949151;28;20724;-73
2024/02/06 07:16:41;;;;;;;2.30;2.10;;;9.70;99.90;;;;;;4951167;28;20243;-74
2024/02/06 07:19:08;;;;;;;1.80;1.70;;;9.70;99.90;;;;;;4951774;29;20211;-74
2024/02/06 07:21:35;;;;;;;1.90;1.70;;;9.70;99.90;;;;;;4951227;28;20211;-74
2024/02/06 07:24:02;;;;;;;2.40;2.20;;;9.70;99.90;;;;;;4958796;28;20239;-74
2024/02/06 07:26:29;;;;;;;2.37;1.80;;;9.70;99.90;;;;;;4951360;28;20306;-74
2024/02/06 07:28:56;;;;;;;2.97;1.90;;;9.70;99.90;;;;;;4968594;28;20306;-73
2024/02/06 07:31:25;;;;;;;3.37;1.97;;;9.70;99.90;;;;;;4970781;28;20214;-74
2024/02/06 07:33:52;;;;;;;4.93;2.13;;;9.70;99.90;;;;;;4970804;28;20221;-74
2024/02/06 07:36:19;;;;;;;1.90;1.60;;;9.70;99.90;;;;;;4970058;28;20250;-74
2024/02/06 07:38:52;;;;;;;2.77;1.50;;;9.70;99.90;;;;;;4969892;28;20297;-73
2024/02/06 07:41:19;;;;;;;3.33;1.90;;;9.80;99.90;;;;;;4970429;28;20290;-74
2024/02/06 07:43:46;;;;;;;3.00;2.07;;;9.70;99.90;;;;;;4970049;28;20231;-74
2024/02/06 07:46:13;;;;;;;1.90;1.80;;;9.80;99.90;;;;;;4970183;28;20218;-74
2024/02/06 07:48:42;;;;;;;3.47;2.17;;;9.80;99.90;;;;;;4970437;28;20588;-73
2024/02/06 07:51:08;;;;;;;2.43;1.80;;;9.80;99.90;;;;;;4970398;28;20254;-73
2024/02/06 07:53:36;;;;;;;1.87;1.67;;;9.80;99.90;;;;;;4969767;28;20221;-74
2024/02/06 07:56:04;;;;;;;1.90;1.80;;;9.80;99.90;;;;;;4970156;28;20242;-73
2024/02/06 07:58:31;;;;;;;1.70;1.60;;;9.90;99.90;;;;;;4970251;28;20302;-73
2024/02/06 08:00:58;;;;;;;2.13;1.90;;;9.80;99.90;;;;;;4970262;28;21121;-73
2024/02/06 08:03:24;;;;;;;2.53;1.50;;;9.80;99.90;;;;;;4970161;28;20647;-74
2024/02/06 08:05:53;;;;;;;2.13;1.73;;;9.90;99.90;;;;;;4983826;28;20214;-74
2024/02/06 08:08:21;;;;;;;3.93;1.93;;;9.90;99.90;;;;;;4989127;28;20213;-74
2024/02/06 08:10:48;;;;;;;2.10;1.50;;;9.90;99.90;;;;;;4989078;28;20728;-73
2024/02/06 08:13:15;;;;;;;2.40;1.90;;;9.90;99.90;;;;;;4989600;28;20264;-74
2024/02/06 08:15:42;;;;;;;2.60;1.60;;;9.90;99.90;;;;;;4989208;28;20222;-73
2024/02/06 08:18:09;;;;;;;1.67;1.57;;;9.90;99.90;;;;;;4987201;28;20218;-73
2024/02/06 08:20:36;;;;;;;2.30;1.80;;;9.90;99.90;;;;;;4969795;28;20298;-73
2024/02/06 08:23:05;;;;;;;2.07;1.70;;;10.00;99.90;;;;;;4969279;28;20345;-74
2024/02/06 08:25:32;;;;;;;1.90;1.70;;;10.00;99.90;;;;;;4968797;28;20301;-74
2024/02/06 08:27:59;;;;;;;1.90;1.80;;;10.00;99.90;;;;;;4969767;28;20207;-74
2024/02/06 08:30:26;;;;;;;2.43;1.80;;;10.00;99.90;;;;;;4969705;28;20205;-74
2024/02/06 08:32:53;;;;;;;1.77;1.30;;;10.00;99.90;;;;;;4969446;28;20333;-73
2024/02/06 08:35:20;;;;;;;2.63;1.93;;;10.10;99.90;;;;;;4969200;28;20687;-74
2024/02/06 08:37:47;;;;;;;2.17;1.70;;;10.10;99.90;;;;;;4969110;28;20297;-74
2024/02/06 08:40:16;;;;;;;1.73;1.40;;;10.10;99.90;;;;;;4969597;28;20221;-74
2024/02/06 08:42:43;;;;;;;3.63;2.00;;;10.10;99.90;;;;;;4969438;28;20343;-74
2024/02/06 08:45:10;;;;;;;2.53;1.73;;;10.20;99.90;;;;;;4969090;28;20302;-74
2024/02/06 08:47:37;;;;;;;2.27;1.53;;;10.20;99.90;;;;;;4969574;28;20297;-74
2024/02/06 08:50:06;;;;;;;1.50;1.40;;;10.20;99.90;;;;;;4969259;28;20254;-74
2024/02/06 08:52:33;;;;;;;2.27;1.37;;;10.20;99.90;;;;;;4968918;28;20229;-74
2024/02/06 08:55:01;;;;;;;4.87;1.83;;;10.30;99.90;;;;;;4969184;28;20206;-74
2024/02/06 08:57:29;;;;;;;2.17;1.80;;;10.20;99.90;;;;;;4969451;28;20234;-74
2024/02/06 08:59:56;;;;;;;2.37;1.70;;;10.20;99.90;;;;;;4968774;28;20295;-74
2024/02/06 09:02:24;;;;;;;3.30;1.50;;;10.30;99.90;;;;;;4968899;28;20331;-73
2024/02/06 09:04:52;;;;;;;1.87;1.50;;;10.30;99.90;;;;;;4969064;28;20207;-74
2024/02/06 09:07:24;;;;;;;1.80;1.40;;;10.30;99.90;;;;;;4968850;28;20215;-74
2024/02/06 09:09:51;;;;;;;2.77;1.50;;;10.40;99.90;;;;;;4968994;28;20195;-74
2024/02/06 09:12:18;;;;;;;2.07;1.50;;;10.40;99.90;;;;;;4968913;28;20652;-74
2024/02/06 09:14:47;;;;;;;2.67;1.57;;;10.40;99.90;;;;;;4968485;28;20294;-74
2024/02/06 09:17:13;;;;;;;2.70;1.70;;;10.40;99.90;;;;;;4968885;28;20213;-74
2024/02/06 09:19:41;;;;;;;3.07;1.60;;;10.40;99.90;;;;;;4968682;28;20285;-74
2024/02/06 09:22:07;;;;;;;2.03;1.30;;;10.40;99.90;;;;;;4968222;28;20273;-74
2024/02/06 09:24:34;;;;;;;2.00;1.30;;;10.40;99.90;;;;;;4968113;28;20242;-74
2024/02/06 09:27:01;;;;;;;1.43;1.33;;;10.40;99.90;;;;;;4968492;28;20779;-74
2024/02/06 09:29:28;;;;;;;1.73;1.53;;;10.40;99.90;;;;;;4968758;28;20294;-73
2024/02/06 09:31:57;;;;;;;3.17;2.23;;;10.50;99.90;;;;;;4968332;28;20304;-74
2024/02/06 09:34:24;;;;;;;3.07;2.03;;;10.50;99.90;;;;;;4968347;28;20677;-74
2024/02/06 09:36:51;;;;;;;2.13;1.37;;;10.50;99.90;;;;;;4968123;28;20210;-74
2024/02/06 09:39:19;;;;;;;2.23;1.30;;;10.50;99.90;;;;;;4968352;28;20217;-74
2024/02/06 09:41:47;;;;;;;2.63;1.27;;;10.50;99.90;;;;;;4967980;28;20273;-74
2024/02/06 09:44:14;;;;;;;2.40;1.20;;;10.50;99.90;;;;;;4968239;28;20684;-74
2024/02/06 09:46:41;;;;;;;1.23;1.00;;;10.60;99.90;;;;;;4968248;28;20215;-74
2024/02/06 09:49:10;;;;;;;2.40;1.40;;;10.60;99.90;;;;;;4968074;28;20213;-74
2024/02/06 09:51:41;;;;;;;1.77;1.23;;;10.60;99.90;;;;;;4967864;28;20242;-74
2024/02/06 09:54:10;;;;;;;1.67;1.57;;;10.60;99.90;;;;;;4955459;28;20211;-74
2024/02/06 09:56:38;;;;;;;1.67;1.53;;;10.60;99.90;;;;;;4948541;29;20658;-74
2024/02/06 09:59:06;;;;;;;2.73;1.30;;;10.70;99.90;;;;;;4949187;29;20234;-74
2024/02/06 10:01:38;;;;;;;1.17;1.07;;;10.70;99.90;;;;;;4948926;29;20321;-74
2024/02/06 10:04:07;;;;;;;1.93;1.27;;;10.70;99.90;;;;;;4948711;29;20726;-74
2024/02/06 10:06:35;;;;;;;3.03;1.40;;;10.70;99.90;;;;;;4948505;29;20212;-74
2024/02/06 10:09:03;;;;;;;1.63;1.50;;;10.80;99.90;;;;;;4948879;29;20257;-74
2024/02/06 10:11:33;;;;;;;3.00;1.70;;;10.70;99.90;;;;;;4957081;28;20605;-74
2024/02/06 10:14:00;;;;;;;1.77;1.50;;;10.80;99.90;;;;;;4967885;28;20210;-74
2024/02/06 10:16:27;;;;;;;1.33;1.00;;;10.80;99.90;;;;;;4967619;28;20223;-73
2024/02/06 10:18:54;;;;;;;2.20;1.43;;;10.80;99.90;;;;;;4967843;28;20310;-74
2024/02/06 10:21:22;;;;;;;4.20;1.63;;;10.80;99.90;;;;;;4967863;28;20235;-74
2024/02/06 10:23:50;;;;;;;1.93;1.80;;;10.80;99.90;;;;;;4967074;28;20337;-74
2024/02/06 10:26:20;;;;;;;1.17;1.13;;;10.80;99.90;;;;;;4967569;28;20305;-74
2024/02/06 10:28:47;;;;;;;3.70;1.37;;;10.90;99.90;;;;;;4968073;28;20289;-74
2024/02/06 10:31:15;;;;;;;1.53;1.37;;;10.90;99.90;;;;;;4967972;28;20203;-74
2024/02/06 10:33:42;;;;;;;2.77;1.10;;;10.90;99.90;;;;;;4967270;28;20211;-74
2024/02/06 10:36:10;;;;;;;1.07;0.90;;;10.90;99.90;;;;;;4967987;28;20261;-74
2024/02/06 10:38:37;;;;;;;3.03;1.20;;;10.90;99.90;;;;;;4967442;28;20211;-74
2024/02/06 10:41:08;;;;;;;1.60;1.10;;;10.80;99.90;;;;;;4967486;28;20305;-73
2024/02/06 10:43:36;;;;;;;3.23;1.37;;;10.80;99.90;;;;;;4967894;28;20270;-73
2024/02/06 10:46:04;;;;;;;2.13;1.20;;;10.80;99.90;;;;;;4967437;28;20294;-74
2024/02/06 10:48:31;;;;;;;1.23;1.13;;;10.80;99.90;;;;;;4967609;28;20214;-73
2024/02/06 10:50:59;;;;;;;1.67;1.20;;;10.80;99.90;;;;;;4971037;28;20210;-73
2024/02/06 10:53:26;;;;;;;4.63;1.10;;;10.80;99.90;;;;;;4971154;28;20220;-74
2024/02/06 10:55:59;;;;;;;1.37;0.90;;;10.80;99.90;;;;;;4971301;28;20210;-74
2024/02/06 10:58:36;;;;;;;1.30;1.20;;;10.80;99.90;;;;;;4971518;28;20218;-74
2024/02/06 11:01:08;;;;;;;1.97;1.20;;;10.80;99.90;;;;;;4971178;28;20199;-74
2024/02/06 11:03:42;;;;;;;2.77;1.20;;;10.80;99.90;;;;;;4971334;28;20327;-74
2024/02/06 11:06:16;;;;;;;2.23;1.27;;;10.80;99.90;;;;;;4971224;28;20235;-73
2024/02/06 11:08:46;;;;;;;3.73;1.83;;;10.90;99.90;;;;;;4970246;28;20254;-74
2024/02/06 11:11:15;;;;;;;2.47;1.27;;;10.90;99.90;;;;;;4970779;28;20273;-74
2024/02/06 11:13:48;;;;;;;2.10;1.20;;;10.80;99.90;;;;;;4971003;28;20215;-73
2024/02/06 11:16:18;;;;;;;1.63;1.37;;;10.80;99.90;;;;;;4970947;28;20199;-73
2024/02/06 11:18:56;;;;;;;1.73;1.20;;;10.80;99.90;;;;;;4970928;28;20303;-73
2024/02/06 11:21:25;;;;;;;1.70;1.60;;;10.80;99.90;;;;;;4971173;28;20305;-74
2024/02/06 11:23:52;;;;;;;1.37;1.00;;;10.80;99.90;;;;;;4970165;28;20234;-74
2024/02/06 11:26:19;;;;;;;1.93;1.13;;;10.90;99.90;;;;;;4971072;28;20238;-74
2024/02/06 11:28:48;;;;;;;1.50;1.20;;;10.90;99.90;;;;;;4970516;28;20211;-74
2024/02/06 11:31:16;;;;;;;1.40;1.30;;;10.90;99.90;;;;;;4970806;28;20291;-74
2024/02/06 11:33:43;;;;;;;2.63;1.20;;;10.80;99.90;;;;;;4970335;28;20214;-74
2024/02/06 11:36:11;;;;;;;2.03;1.20;;;10.90;99.90;;;;;;4970227;28;20757;-73
2024/02/06 11:38:38;;;;;;;2.50;1.10;;;10.90;99.90;;;;;;4970383;28;20211;-73
2024/02/06 11:41:10;;;;;;;1.67;1.20;;;11.00;99.90;;;;;;4970410;28;20658;-73
2024/02/06 11:43:37;;;;;;;2.57;1.40;;;11.00;99.90;;;;;;4970294;28;20226;-73
2024/02/06 11:46:05;;;;;;;2.20;1.30;;;11.00;99.90;;;;;;4970497;28;20211;-74
2024/02/06 11:48:32;;;;;;;3.50;1.40;;;11.00;99.90;;;;;;4970513;28;20297;-74
2024/02/06 11:50:59;;;;;;;1.00;1.00;;;11.10;99.90;;;;;;4969857;28;20297;-73
2024/02/06 11:53:27;;;;;;;1.33;1.17;;;11.10;99.90;;;;;;4970073;28;20741;-74
2024/02/06 11:55:57;;;;;;;1.87;1.50;;;11.20;99.90;;;;;;4970311;28;20234;-74
2024/02/06 11:58:25;;;;;;;1.80;1.00;;;11.20;99.90;;;;;;4970262;28;20211;-73
2024/02/06 12:00:52;;;;;;;1.00;0.90;;;11.30;99.90;;;;;;4969862;28;20238;-73
2024/02/06 12:03:21;;;;;;;1.37;1.20;;;11.30;99.90;;;;;;4969963;28;20233;-74
2024/02/06 12:05:47;;;;;;;1.87;1.00;;;11.30;99.90;;;;;;4969507;28;20306;-74
2024/02/06 12:08:19;;;;;;;1.27;1.00;;;11.40;99.90;;;;;;4969852;28;20253;-74
2024/02/06 12:10:47;;;;;;;1.80;1.00;;;11.40;99.90;;;;;;4969726;28;20282;-74
2024/02/06 12:13:16;;;;;;;1.50;1.33;;;11.50;99.90;;;;;;4969937;28;20221;-73
2024/02/06 12:15:43;;;;;;;1.23;0.80;;;11.50;99.90;;;;;;4969679;28;20210;-73
2024/02/06 12:18:14;;;;;;;1.70;1.30;;;11.50;99.90;;;;;;4970022;28;20274;-73
2024/02/06 12:20:42;;;;;;;1.10;1.00;;;11.50;99.90;;;;;;4969690;28;20262;-73
2024/02/06 12:23:11;;;;;;;0.90;0.90;;;11.50;99.90;;;;;;4964521;28;20285;-73
2024/02/06 12:25:40;;;;;;;2.33;1.40;;;11.40;99.90;;;;;;4956106;28;20649;-73
2024/02/06 12:28:12;;;;;;;1.83;1.40;;;11.50;99.90;;;;;;4969408;28;20206;-73
2024/02/06 12:30:41;;;;;;;4.13;2.90;;;11.50;99.90;;;;;;4969397;28;20195;-73
2024/02/06 12:33:08;;;;;;;4.17;1.70;;;11.50;99.90;;;;;;4969405;28;20250;-74
2024/02/06 12:35:38;;;;;;;2.43;1.03;;;11.50;99.90;;;;;;4969292;28;20306;-73
2024/02/06 12:38:08;;;;;;;7.30;1.40;;;11.60;99.90;;;;;;4969405;28;20289;-74
2024/02/06 12:40:36;;;;;;;1.63;1.30;;;11.60;99.90;;;;;;4969786;28;20219;-74
2024/02/06 12:43:03;;;;;;;3.17;1.40;;;11.60;99.90;;;;;;4969357;28;20334;-74
2024/02/06 12:45:30;;;;;;;1.63;1.10;;;11.50;99.90;;;;;;4969517;28;20325;-73
2024/02/06 12:47:58;;;;;;;2.07;1.53;;;11.60;99.90;;;;;;4969345;28;20211;-73
2024/02/06 12:50:25;;;;;;;1.80;1.40;;;11.50;99.90;;;;;;4969514;28;20239;-73
2024/02/06 12:52:54;;;;;;;2.50;1.30;;;11.60;99.90;;;;;;4966570;28;20701;-74
2024/02/06 12:55:22;;;;;;;2.33;1.17;;;11.60;99.90;;;;;;4950327;29;20654;-73